ITF62FH LFPO-LFBT
Flight info
| Callsign | ITF62FH |
|---|---|
| Flight time | 1h 10m |
| Altitude | 29000 |
| Route | ERIXU2E/07 ERIXU DCT ETAMO DCT GUERE DCT EVPOK DCT AGN |
| Aircraft | A320/M-SDE3FGHIRWY/LB1 |
Departure
| Time | 2026-05-01 07:33 |
|---|---|
| Airport | Paris-Orly Airport (LFPO) |
Arrival
| Time | 2026-05-01 08:44 |
|---|---|
| Airport | Tarbes-Lourdes-Pyrénées Airport (LFBT) |
| Time | Latitude | Longitude | Altitude | Speed | Heading |
|---|---|---|---|---|---|
| 2026-05-01 07:23 | 48.72749 | 2.35788 | 294 ft | 0 kts | 172° |
| 2026-05-01 07:26 | 48.72751 | 2.35787 | 294 ft | 2 kts | 172° |
| 2026-05-01 07:26 | 48.72773 | 2.35783 | 299 ft | 4 kts | 159° |
| 2026-05-01 07:26 | 48.72790 | 2.35760 | 298 ft | 4 kts | 95° |
| 2026-05-01 07:26 | 48.72787 | 2.35721 | 297 ft | 4 kts | 71° |
| 2026-05-01 07:27 | 48.72780 | 2.35690 | 298 ft | 2 kts | 75° |
| 2026-05-01 07:27 | 48.72776 | 2.35651 | 298 ft | 4 kts | 96° |
| 2026-05-01 07:27 | 48.72783 | 2.35613 | 299 ft | 4 kts | 123° |
| 2026-05-01 07:27 | 48.72801 | 2.35584 | 299 ft | 4 kts | 154° |
| 2026-05-01 07:28 | 48.72824 | 2.35572 | 297 ft | 3 kts | 164° |
| 2026-05-01 07:28 | 48.72828 | 2.35570 | 296 ft | 0 kts | 164° |
| 2026-05-01 07:30 | 48.72816 | 2.35575 | 299 ft | 8 kts | 164° |
| 2026-05-01 07:30 | 48.72755 | 2.35549 | 297 ft | 10 kts | 246° |
| 2026-05-01 07:30 | 48.72692 | 2.35499 | 293 ft | 18 kts | 165° |
| 2026-05-01 07:31 | 48.72557 | 2.35557 | 295 ft | 21 kts | 164° |
| 2026-05-01 07:31 | 48.72223 | 2.35601 | 294 ft | 22 kts | 163° |
| 2026-05-01 07:32 | 48.72057 | 2.35694 | 295 ft | 20 kts | 139° |
| 2026-05-01 07:32 | 48.71980 | 2.35884 | 294 ft | 22 kts | 112° |
| 2026-05-01 07:33 | 48.72182 | 2.37167 | 291 ft | 126 kts | 74° |
| 2026-05-01 07:33 | 48.72457 | 2.38679 | 565 ft | 154 kts | 77° |
| 2026-05-01 07:33 | 48.73048 | 2.41839 | 1995 ft | 160 kts | 77° |
| 2026-05-01 07:34 | 48.73341 | 2.43477 | 2663 ft | 163 kts | 77° |
| 2026-05-01 07:34 | 48.73951 | 2.46883 | 3862 ft | 181 kts | 76° |
| 2026-05-01 07:34 | 48.74162 | 2.48849 | 4330 ft | 199 kts | 90° |
| 2026-05-01 07:35 | 48.74217 | 2.51083 | 4738 ft | 224 kts | 89° |
| 2026-05-01 07:35 | 48.74278 | 2.53573 | 5201 ft | 249 kts | 89° |
| 2026-05-01 07:35 | 48.74257 | 2.56299 | 5763 ft | 267 kts | 103° |
| 2026-05-01 07:35 | 48.73469 | 2.58836 | 6632 ft | 270 kts | 129° |
| 2026-05-01 07:36 | 48.72038 | 2.60676 | 7550 ft | 273 kts | 153° |
| 2026-05-01 07:36 | 48.70217 | 2.61442 | 8471 ft | 276 kts | 178° |
| 2026-05-01 07:36 | 48.68324 | 2.60932 | 9417 ft | 281 kts | 203° |
| 2026-05-01 07:36 | 48.66652 | 2.59363 | 10331 ft | 285 kts | 214° |
| 2026-05-01 07:37 | 48.63763 | 2.56308 | 10994 ft | 323 kts | 213° |
| 2026-05-01 07:37 | 48.61840 | 2.54316 | 11250 ft | 347 kts | 213° |
| 2026-05-01 07:37 | 48.59789 | 2.52212 | 11509 ft | 367 kts | 213° |
| 2026-05-01 07:38 | 48.57640 | 2.50018 | 12111 ft | 375 kts | 212° |
| 2026-05-01 07:38 | 48.55462 | 2.47803 | 12821 ft | 380 kts | 212° |
| 2026-05-01 07:38 | 48.51049 | 2.43311 | 13238 ft | 383 kts | 212° |
| 2026-05-01 07:39 | 48.48847 | 2.41059 | 13240 ft | 383 kts | 212° |
| 2026-05-01 07:39 | 48.46643 | 2.38802 | 13245 ft | 383 kts | 212° |
| 2026-05-01 07:39 | 48.42239 | 2.34301 | 13239 ft | 383 kts | 212° |
| 2026-05-01 07:40 | 48.40032 | 2.32058 | 13242 ft | 383 kts | 212° |
| 2026-05-01 07:40 | 48.37824 | 2.29821 | 13243 ft | 382 kts | 212° |
| 2026-05-01 07:40 | 48.35616 | 2.27582 | 13240 ft | 382 kts | 212° |
| 2026-05-01 07:40 | 48.33415 | 2.25350 | 13240 ft | 382 kts | 211° |
| 2026-05-01 07:41 | 48.31076 | 2.23476 | 13242 ft | 380 kts | 200° |
| 2026-05-01 07:41 | 48.28557 | 2.22336 | 13238 ft | 378 kts | 189° |
| 2026-05-01 07:41 | 48.23354 | 2.22326 | 13241 ft | 375 kts | 170° |
| 2026-05-01 07:42 | 48.20781 | 2.22965 | 13237 ft | 375 kts | 170° |
| 2026-05-01 07:42 | 48.18202 | 2.23594 | 13238 ft | 375 kts | 170° |
| 2026-05-01 07:42 | 48.15621 | 2.24217 | 13239 ft | 375 kts | 170° |
| 2026-05-01 07:42 | 48.13044 | 2.24837 | 13242 ft | 375 kts | 170° |
| 2026-05-01 07:43 | 48.10461 | 2.25460 | 13243 ft | 375 kts | 170° |
| 2026-05-01 07:43 | 48.07843 | 2.26001 | 13242 ft | 376 kts | 175° |
| 2026-05-01 07:43 | 48.02613 | 2.26337 | 13244 ft | 376 kts | 176° |
| 2026-05-01 07:44 | 47.97380 | 2.26665 | 13249 ft | 376 kts | 176° |
| 2026-05-01 07:44 | 47.92148 | 2.27002 | 13247 ft | 376 kts | 176° |
| 2026-05-01 07:45 | 47.89533 | 2.27167 | 13247 ft | 377 kts | 176° |
| 2026-05-01 07:45 | 47.86951 | 2.27330 | 13246 ft | 377 kts | 176° |
| 2026-05-01 07:45 | 47.84330 | 2.27500 | 13245 ft | 377 kts | 176° |
| 2026-05-01 07:45 | 47.81715 | 2.27666 | 13247 ft | 377 kts | 176° |
| 2026-05-01 07:46 | 47.79094 | 2.27832 | 13245 ft | 377 kts | 176° |
| 2026-05-01 07:46 | 47.76474 | 2.27996 | 13245 ft | 377 kts | 176° |
| 2026-05-01 07:46 | 47.71230 | 2.28331 | 13247 ft | 377 kts | 176° |
| 2026-05-01 07:47 | 47.68614 | 2.28499 | 13245 ft | 377 kts | 176° |
| 2026-05-01 07:47 | 47.65992 | 2.28665 | 13244 ft | 377 kts | 176° |
| 2026-05-01 07:47 | 47.63372 | 2.28827 | 13242 ft | 377 kts | 176° |
| 2026-05-01 07:47 | 47.60752 | 2.28989 | 13243 ft | 377 kts | 176° |
| 2026-05-01 07:48 | 47.55509 | 2.29322 | 13243 ft | 377 kts | 176° |
| 2026-05-01 07:48 | 47.52888 | 2.29491 | 13240 ft | 377 kts | 176° |
| 2026-05-01 07:48 | 47.50269 | 2.29657 | 13245 ft | 377 kts | 176° |
| 2026-05-01 07:49 | 47.47645 | 2.29819 | 13243 ft | 377 kts | 176° |
| 2026-05-01 07:49 | 47.42404 | 2.30142 | 13243 ft | 377 kts | 176° |
| 2026-05-01 07:49 | 47.39784 | 2.30305 | 13250 ft | 377 kts | 176° |
| 2026-05-01 07:50 | 47.37163 | 2.30470 | 13246 ft | 377 kts | 176° |
| 2026-05-01 07:50 | 47.31927 | 2.30803 | 13246 ft | 377 kts | 176° |
| 2026-05-01 07:50 | 47.29308 | 2.30971 | 13245 ft | 377 kts | 176° |
| 2026-05-01 07:51 | 47.26691 | 2.31134 | 13249 ft | 376 kts | 176° |
| 2026-05-01 07:51 | 47.24041 | 2.31295 | 13253 ft | 376 kts | 176° |
| 2026-05-01 07:51 | 47.21424 | 2.31450 | 13248 ft | 376 kts | 176° |
| 2026-05-01 07:52 | 47.16197 | 2.31766 | 13251 ft | 376 kts | 176° |
| 2026-05-01 07:52 | 47.13589 | 2.31930 | 13249 ft | 376 kts | 176° |
| 2026-05-01 07:52 | 47.10976 | 2.32097 | 13251 ft | 376 kts | 176° |
| 2026-05-01 07:53 | 47.05758 | 2.32423 | 13250 ft | 375 kts | 176° |
| 2026-05-01 07:53 | 47.03145 | 2.32580 | 13248 ft | 375 kts | 176° |
| 2026-05-01 07:53 | 47.00538 | 2.32737 | 13251 ft | 375 kts | 176° |
| 2026-05-01 07:53 | 46.97928 | 2.32896 | 13248 ft | 375 kts | 176° |
| 2026-05-01 07:54 | 46.92710 | 2.33216 | 13253 ft | 375 kts | 176° |
| 2026-05-01 07:55 | 46.84888 | 2.33608 | 13255 ft | 376 kts | 182° |
| 2026-05-01 07:55 | 46.79760 | 2.32102 | 13258 ft | 377 kts | 193° |
| 2026-05-01 07:56 | 46.72151 | 2.29171 | 13258 ft | 377 kts | 193° |
| 2026-05-01 07:56 | 46.67082 | 2.27225 | 13259 ft | 377 kts | 193° |
| 2026-05-01 07:57 | 46.64550 | 2.26256 | 13256 ft | 377 kts | 193° |
| 2026-05-01 07:57 | 46.59482 | 2.24318 | 13259 ft | 376 kts | 193° |
| 2026-05-01 07:58 | 46.54416 | 2.22386 | 13263 ft | 376 kts | 193° |
| 2026-05-01 07:58 | 46.49319 | 2.20443 | 13264 ft | 376 kts | 193° |
| 2026-05-01 07:59 | 46.44255 | 2.18507 | 13262 ft | 376 kts | 193° |
| 2026-05-01 07:59 | 46.39189 | 2.16579 | 13264 ft | 376 kts | 193° |
| 2026-05-01 08:00 | 46.29050 | 2.12747 | 13257 ft | 376 kts | 193° |
| 2026-05-01 08:01 | 46.21453 | 2.09871 | 13263 ft | 376 kts | 194° |
| 2026-05-01 08:01 | 46.18989 | 2.08574 | 13261 ft | 378 kts | 204° |
| 2026-05-01 08:01 | 46.16722 | 2.06655 | 13257 ft | 379 kts | 213° |
| 2026-05-01 08:02 | 46.12377 | 2.02238 | 14135 ft | 385 kts | 213° |
| 2026-05-01 08:02 | 46.10172 | 2.00012 | 14845 ft | 388 kts | 213° |
| 2026-05-01 08:03 | 46.05693 | 1.95514 | 16175 ft | 396 kts | 213° |
| 2026-05-01 08:03 | 46.03425 | 1.93241 | 16833 ft | 400 kts | 213° |
| 2026-05-01 08:03 | 45.98821 | 1.88620 | 18101 ft | 407 kts | 213° |
| 2026-05-01 08:04 | 45.94138 | 1.83918 | 19217 ft | 414 kts | 213° |
| 2026-05-01 08:04 | 45.89388 | 1.79162 | 20258 ft | 419 kts | 213° |
| 2026-05-01 08:05 | 45.84578 | 1.74367 | 21243 ft | 423 kts | 213° |
| 2026-05-01 08:05 | 45.82114 | 1.71918 | 21732 ft | 426 kts | 213° |
| 2026-05-01 08:05 | 45.79672 | 1.69491 | 22158 ft | 429 kts | 213° |
| 2026-05-01 08:06 | 45.74743 | 1.64584 | 23013 ft | 434 kts | 213° |
| 2026-05-01 08:06 | 45.69749 | 1.59628 | 23822 ft | 439 kts | 214° |
| 2026-05-01 08:07 | 45.64691 | 1.54634 | 24500 ft | 443 kts | 214° |
| 2026-05-01 08:07 | 45.59597 | 1.49607 | 25138 ft | 447 kts | 215° |
| 2026-05-01 08:08 | 45.57037 | 1.47083 | 25422 ft | 449 kts | 215° |
| 2026-05-01 08:08 | 45.51870 | 1.41989 | 25993 ft | 453 kts | 216° |
| 2026-05-01 08:09 | 45.46367 | 1.37583 | 26528 ft | 458 kts | 202° |
| 2026-05-01 08:09 | 45.43310 | 1.36282 | 26770 ft | 462 kts | 195° |
| 2026-05-01 08:09 | 45.40171 | 1.35268 | 26992 ft | 463 kts | 195° |
| 2026-05-01 08:10 | 45.34932 | 1.33561 | 27315 ft | 465 kts | 195° |
| 2026-05-01 08:10 | 45.28608 | 1.31499 | 27677 ft | 467 kts | 195° |
| 2026-05-01 08:11 | 45.22276 | 1.29463 | 28188 ft | 465 kts | 195° |
| 2026-05-01 08:11 | 45.15934 | 1.27426 | 28748 ft | 464 kts | 196° |
| 2026-05-01 08:12 | 45.09640 | 1.25396 | 29223 ft | 462 kts | 196° |
| 2026-05-01 08:12 | 45.06516 | 1.24383 | 29246 ft | 461 kts | 196° |
| 2026-05-01 08:13 | 44.97154 | 1.21370 | 29248 ft | 460 kts | 196° |
| 2026-05-01 08:13 | 44.87798 | 1.18374 | 29249 ft | 460 kts | 196° |
| 2026-05-01 08:14 | 44.81561 | 1.16377 | 29244 ft | 460 kts | 195° |
| 2026-05-01 08:14 | 44.75325 | 1.14392 | 29236 ft | 459 kts | 195° |
| 2026-05-01 08:15 | 44.65977 | 1.11428 | 29237 ft | 459 kts | 195° |
| 2026-05-01 08:16 | 44.59751 | 1.09462 | 29226 ft | 459 kts | 195° |
| 2026-05-01 08:16 | 44.53530 | 1.07494 | 29228 ft | 458 kts | 195° |
| 2026-05-01 08:17 | 44.47308 | 1.05527 | 29223 ft | 458 kts | 195° |
| 2026-05-01 08:17 | 44.41084 | 1.03569 | 29221 ft | 458 kts | 195° |
| 2026-05-01 08:18 | 44.34860 | 1.01621 | 29214 ft | 458 kts | 195° |
| 2026-05-01 08:19 | 44.22369 | 0.97712 | 29210 ft | 458 kts | 195° |
| 2026-05-01 08:19 | 44.16144 | 0.95765 | 29207 ft | 458 kts | 195° |
| 2026-05-01 08:20 | 44.09917 | 0.93825 | 29203 ft | 459 kts | 195° |
| 2026-05-01 08:20 | 44.03671 | 0.91897 | 29206 ft | 460 kts | 194° |
| 2026-05-01 08:21 | 43.97416 | 0.89961 | 29203 ft | 460 kts | 195° |
| 2026-05-01 08:21 | 43.91183 | 0.87950 | 29206 ft | 459 kts | 199° |
| 2026-05-01 08:22 | 43.85538 | 0.84021 | 29211 ft | 454 kts | 217° |
| 2026-05-01 08:22 | 43.80427 | 0.78892 | 29024 ft | 453 kts | 217° |
| 2026-05-01 08:22 | 43.77871 | 0.76341 | 27637 ft | 455 kts | 217° |
| 2026-05-01 08:23 | 43.75276 | 0.73765 | 25962 ft | 463 kts | 217° |
| 2026-05-01 08:23 | 43.72637 | 0.71155 | 24320 ft | 470 kts | 217° |
| 2026-05-01 08:23 | 43.69969 | 0.68513 | 23002 ft | 470 kts | 217° |
| 2026-05-01 08:23 | 43.67366 | 0.65938 | 22655 ft | 449 kts | 217° |
| 2026-05-01 08:24 | 43.64888 | 0.63495 | 22519 ft | 427 kts | 217° |
| 2026-05-01 08:24 | 43.62526 | 0.61166 | 22385 ft | 408 kts | 217° |
| 2026-05-01 08:24 | 43.60261 | 0.58928 | 22244 ft | 392 kts | 217° |
| 2026-05-01 08:24 | 43.58090 | 0.56778 | 22116 ft | 378 kts | 217° |
| 2026-05-01 08:25 | 43.55992 | 0.54698 | 22000 ft | 364 kts | 217° |
| 2026-05-01 08:25 | 43.53973 | 0.52702 | 21853 ft | 351 kts | 217° |
| 2026-05-01 08:25 | 43.52016 | 0.50775 | 21595 ft | 343 kts | 217° |
| 2026-05-01 08:25 | 43.50082 | 0.48874 | 21199 ft | 339 kts | 216° |
| 2026-05-01 08:26 | 43.48172 | 0.46997 | 20782 ft | 337 kts | 216° |
| 2026-05-01 08:26 | 43.46270 | 0.45129 | 20362 ft | 334 kts | 216° |
| 2026-05-01 08:26 | 43.44430 | 0.43324 | 19961 ft | 333 kts | 216° |
| 2026-05-01 08:26 | 43.42550 | 0.41480 | 19561 ft | 331 kts | 216° |
| 2026-05-01 08:27 | 43.40695 | 0.39563 | 19157 ft | 328 kts | 225° |
| 2026-05-01 08:27 | 43.39380 | 0.37035 | 18761 ft | 326 kts | 242° |
| 2026-05-01 08:27 | 43.38423 | 0.34217 | 18330 ft | 325 kts | 248° |
| 2026-05-01 08:27 | 43.37636 | 0.31313 | 17899 ft | 323 kts | 250° |
| 2026-05-01 08:28 | 43.36937 | 0.28489 | 17502 ft | 322 kts | 251° |
| 2026-05-01 08:28 | 43.36218 | 0.25587 | 17108 ft | 320 kts | 250° |
| 2026-05-01 08:28 | 43.35479 | 0.22720 | 16676 ft | 318 kts | 249° |
| 2026-05-01 08:28 | 43.34700 | 0.19809 | 15806 ft | 331 kts | 249° |
| 2026-05-01 08:29 | 43.33869 | 0.16800 | 14935 ft | 343 kts | 248° |
| 2026-05-01 08:29 | 43.33078 | 0.13650 | 14056 ft | 354 kts | 253° |
| 2026-05-01 08:29 | 43.32465 | 0.10336 | 13049 ft | 363 kts | 256° |
| 2026-05-01 08:29 | 43.31673 | 0.07020 | 12045 ft | 369 kts | 240° |
| 2026-05-01 08:30 | 43.29988 | 0.04394 | 11077 ft | 371 kts | 216° |
| 2026-05-01 08:30 | 43.27691 | 0.02767 | 10122 ft | 374 kts | 200° |
| 2026-05-01 08:30 | 43.25185 | 0.01776 | 9078 ft | 375 kts | 193° |
| 2026-05-01 08:30 | 43.22636 | 0.01005 | 8070 ft | 376 kts | 192° |
| 2026-05-01 08:31 | 43.20092 | 0.00190 | 7089 ft | 375 kts | 194° |
| 2026-05-01 08:31 | 43.17578 | -0.00775 | 6099 ft | 375 kts | 197° |
| 2026-05-01 08:31 | 43.15119 | -0.01907 | 5092 ft | 373 kts | 200° |
| 2026-05-01 08:31 | 43.12644 | -0.02919 | 4125 ft | 370 kts | 186° |
| 2026-05-01 08:32 | 43.10372 | -0.03262 | 5466 ft | 292 kts | 186° |
| 2026-05-01 08:32 | 43.08574 | -0.03365 | 6541 ft | 234 kts | 171° |
| 2026-05-01 08:32 | 43.07203 | -0.02325 | 6487 ft | 224 kts | 126° |
| 2026-05-01 08:32 | 43.06805 | -0.00362 | 6429 ft | 219 kts | 80° |
| 2026-05-01 08:33 | 43.07467 | 0.01523 | 6114 ft | 227 kts | 53° |
| 2026-05-01 08:33 | 43.08441 | 0.03236 | 5711 ft | 230 kts | 52° |
| 2026-05-01 08:33 | 43.09429 | 0.04969 | 5316 ft | 232 kts | 52° |
| 2026-05-01 08:33 | 43.10424 | 0.06716 | 4970 ft | 232 kts | 52° |
| 2026-05-01 08:34 | 43.11429 | 0.08482 | 4606 ft | 232 kts | 52° |
| 2026-05-01 08:34 | 43.12360 | 0.10242 | 4251 ft | 231 kts | 63° |
| 2026-05-01 08:34 | 43.12920 | 0.12309 | 4019 ft | 224 kts | 76° |
| 2026-05-01 08:34 | 43.13183 | 0.14350 | 4012 ft | 214 kts | 83° |
| 2026-05-01 08:35 | 43.13316 | 0.16372 | 4012 ft | 213 kts | 86° |
| 2026-05-01 08:35 | 43.13439 | 0.18394 | 4012 ft | 213 kts | 82° |
| 2026-05-01 08:35 | 43.13692 | 0.20395 | 4013 ft | 213 kts | 77° |
| 2026-05-01 08:35 | 43.14059 | 0.22361 | 4010 ft | 213 kts | 73° |
| 2026-05-01 08:36 | 43.14531 | 0.24285 | 4010 ft | 213 kts | 68° |
| 2026-05-01 08:36 | 43.15335 | 0.25965 | 4013 ft | 213 kts | 41° |
| 2026-05-01 08:36 | 43.16626 | 0.26911 | 4010 ft | 213 kts | 11° |
| 2026-05-01 08:36 | 43.18092 | 0.26843 | 3993 ft | 214 kts | 341° |
| 2026-05-01 08:37 | 43.19404 | 0.25905 | 3866 ft | 213 kts | 328° |
| 2026-05-01 08:37 | 43.20675 | 0.24855 | 3746 ft | 213 kts | 329° |
| 2026-05-01 08:37 | 43.21943 | 0.23813 | 3618 ft | 213 kts | 329° |
| 2026-05-01 08:37 | 43.23211 | 0.22775 | 3494 ft | 212 kts | 329° |
| 2026-05-01 08:38 | 43.24476 | 0.21738 | 3371 ft | 212 kts | 329° |
| 2026-05-01 08:38 | 43.25738 | 0.20706 | 3240 ft | 211 kts | 329° |
| 2026-05-01 08:38 | 43.26985 | 0.19688 | 3129 ft | 205 kts | 329° |
| 2026-05-01 08:38 | 43.28159 | 0.18663 | 3037 ft | 196 kts | 322° |
| 2026-05-01 08:39 | 43.29134 | 0.17389 | 3005 ft | 192 kts | 310° |
| 2026-05-01 08:39 | 43.29893 | 0.15888 | 3008 ft | 191 kts | 298° |
| 2026-05-01 08:39 | 43.30413 | 0.14213 | 3011 ft | 191 kts | 287° |
| 2026-05-01 08:39 | 43.30672 | 0.12425 | 3014 ft | 191 kts | 275° |
| 2026-05-01 08:40 | 43.30378 | 0.08806 | 3021 ft | 187 kts | 251° |
| 2026-05-01 08:40 | 43.29879 | 0.07247 | 3028 ft | 171 kts | 240° |
| 2026-05-01 08:40 | 43.29077 | 0.06184 | 2972 ft | 155 kts | 214° |
| 2026-05-01 08:41 | 43.28221 | 0.05363 | 2878 ft | 147 kts | 216° |
| 2026-05-01 08:41 | 43.27398 | 0.04570 | 2837 ft | 145 kts | 214° |
| 2026-05-01 08:41 | 43.26534 | 0.03783 | 2478 ft | 151 kts | 211° |
| 2026-05-01 08:41 | 43.25599 | 0.03274 | 2354 ft | 140 kts | 195° |
| 2026-05-01 08:42 | 43.24680 | 0.02841 | 2310 ft | 139 kts | 199° |
| 2026-05-01 08:42 | 43.23800 | 0.02396 | 2172 ft | 138 kts | 200° |
| 2026-05-01 08:42 | 43.22888 | 0.01915 | 1983 ft | 137 kts | 199° |
| 2026-05-01 08:42 | 43.22294 | 0.01622 | 1864 ft | 137 kts | 200° |
| 2026-05-01 08:43 | 43.21401 | 0.01172 | 1700 ft | 137 kts | 200° |
| 2026-05-01 08:43 | 43.20507 | 0.00719 | 1510 ft | 137 kts | 200° |
| 2026-05-01 08:43 | 43.19623 | 0.00260 | 1323 ft | 136 kts | 200° |
| 2026-05-01 08:43 | 43.18746 | -0.00189 | 1194 ft | 125 kts | 196° |
| 2026-05-01 08:44 | 43.18092 | -0.00522 | 1215 ft | 75 kts | 200° |
| 2026-05-01 08:44 | 43.17761 | -0.00688 | 1221 ft | 27 kts | 199° |
| 2026-05-01 08:44 | 43.17593 | -0.00773 | 1225 ft | 29 kts | 201° |
| 2026-05-01 08:44 | 43.17369 | -0.00886 | 1238 ft | 35 kts | 199° |
| 2026-05-01 08:45 | 43.17165 | -0.00985 | 1248 ft | 25 kts | 195° |
| 2026-05-01 08:45 | 43.17086 | -0.00910 | 1255 ft | 14 kts | 110° |
| 2026-05-01 08:45 | 43.17081 | -0.00777 | 1252 ft | 16 kts | 62° |
| 2026-05-01 08:45 | 43.17209 | -0.00702 | 1243 ft | 29 kts | 21° |
| 2026-05-01 08:46 | 43.17426 | -0.00592 | 1230 ft | 35 kts | 20° |
| 2026-05-01 08:46 | 43.17661 | -0.00460 | 1223 ft | 38 kts | 29° |
| 2026-05-01 08:46 | 43.17894 | -0.00282 | 1216 ft | 39 kts | 29° |
| 2026-05-01 08:46 | 43.18127 | -0.00102 | 1209 ft | 29 kts | 29° |
| 2026-05-01 08:47 | 43.18300 | 0.00028 | 1203 ft | 18 kts | 29° |
| 2026-05-01 08:47 | 43.18389 | 0.00096 | 1200 ft | 17 kts | 29° |
| 2026-05-01 08:47 | 43.18431 | 0.00136 | 1198 ft | 4 kts | 54° |
| 2026-05-01 08:47 | 43.18449 | 0.00253 | 1197 ft | 11 kts | 66° |
| 2026-05-01 08:48 | 43.18471 | 0.00303 | 1196 ft | 1 kts | 40° |
| 2026-05-01 08:48 | 43.18477 | 0.00311 | 1196 ft | 1 kts | 40° |
| 2026-05-01 08:48 | 43.18481 | 0.00315 | 1196 ft | 1 kts | 38° |